createdAt,value
2022-10-04T00:01:58.398Z,3.38
2022-10-04T00:04:42.970Z,4.53
2022-10-04T00:07:12.880Z,3.47
2022-10-04T00:09:55.432Z,3.35
2022-10-04T00:12:40.485Z,3.03
2022-10-04T00:15:28.497Z,2.90
2022-10-04T00:18:28.944Z,4.00
2022-10-04T00:21:00.613Z,3.20
2022-10-04T00:23:41.712Z,3.27
2022-10-04T00:26:31.847Z,4.25
2022-10-04T00:28:58.885Z,3.28
2022-10-04T00:31:29.126Z,2.75
2022-10-04T00:34:16.462Z,3.03
2022-10-04T00:36:57.150Z,4.70
2022-10-04T00:39:34.517Z,3.30
2022-10-04T00:42:32.747Z,4.38
2022-10-04T00:45:39.078Z,2.78
2022-10-04T00:48:16.483Z,3.00
2022-10-04T00:50:55.480Z,3.42
2022-10-04T00:53:50.793Z,3.55
2022-10-04T00:56:38.628Z,2.42
2022-10-04T00:59:46.113Z,2.90
2022-10-04T01:02:18.998Z,3.05
2022-10-04T01:05:10.778Z,2.10
2022-10-04T01:07:44.888Z,3.08
2022-10-04T01:10:21.237Z,3.67
2022-10-04T01:13:19.244Z,3.35
2022-10-04T01:16:27.557Z,3.17
2022-10-04T01:18:54.572Z,3.00
2022-10-04T01:21:21.441Z,3.50
2022-10-04T01:24:08.546Z,2.83
2022-10-04T01:26:45.422Z,4.37
2022-10-04T01:29:24.863Z,3.35
2022-10-04T01:31:55.228Z,3.47
2022-10-04T01:34:25.497Z,3.78
2022-10-04T01:37:03.880Z,2.58
2022-10-04T01:39:31.512Z,2.97
2022-10-04T01:42:01.762Z,3.35
2022-10-04T01:44:49.859Z,2.92
2022-10-04T01:47:46.920Z,3.97
2022-10-04T01:50:47.250Z,4.70
2022-10-04T01:53:30.634Z,3.67
2022-10-04T01:56:11.900Z,4.10
2022-10-04T01:59:19.349Z,3.72
2022-10-04T02:01:59.149Z,2.38
2022-10-04T02:04:38.732Z,2.50
2022-10-04T02:07:13.819Z,4.00
2022-10-04T02:09:46.170Z,3.85
2022-10-04T02:12:18.767Z,3.45
2022-10-04T02:14:53.262Z,2.88
2022-10-04T02:17:28.295Z,6.28
2022-10-04T02:19:56.859Z,3.65
2022-10-04T02:22:25.464Z,2.72
2022-10-04T02:24:56.748Z,3.67
2022-10-04T02:27:30.056Z,3.47
2022-10-04T02:30:11.110Z,3.85
2022-10-04T02:33:00.570Z,3.13
2022-10-04T02:35:36.440Z,4.10
2022-10-04T02:38:20.047Z,3.95
2022-10-04T02:40:54.027Z,3.77
2022-10-04T02:43:45.701Z,3.53
2022-10-04T02:46:21.626Z,3.38
2022-10-04T02:48:55.250Z,3.85
2022-10-04T02:51:33.500Z,4.38
2022-10-04T02:54:56.703Z,2.78
2022-10-04T02:57:24.640Z,3.22
2022-10-04T03:00:01.740Z,3.78
2022-10-04T03:02:31.171Z,3.85
2022-10-04T03:05:08.387Z,6.00
2022-10-04T03:07:37.088Z,3.95
2022-10-04T03:10:13.515Z,3.30
2022-10-04T03:12:41.229Z,4.65
2022-10-04T03:15:12.227Z,4.50
2022-10-04T03:17:43.878Z,3.25
2022-10-04T03:20:16.170Z,3.55
2022-10-04T03:22:47.053Z,4.28
2022-10-04T03:25:38.080Z,3.17
2022-10-04T03:28:05.260Z,4.15
2022-10-04T03:30:34.224Z,2.95
2022-10-04T03:33:01.351Z,3.10
2022-10-04T03:35:37.729Z,4.05
2022-10-04T03:38:12.484Z,4.13
2022-10-04T03:40:45.267Z,3.03
2022-10-04T03:43:14.375Z,3.65
2022-10-04T03:45:42.319Z,3.67
2022-10-04T03:48:18.438Z,4.07
2022-10-04T03:50:49.606Z,3.92
2022-10-04T03:53:43.051Z,4.35
2022-10-04T03:56:16.376Z,4.60
2022-10-04T03:58:45.322Z,4.15
2022-10-04T04:01:17.522Z,3.60
2022-10-04T04:04:18.410Z,4.25
2022-10-04T04:07:03.704Z,3.80
2022-10-04T04:10:07.665Z,3.92
2022-10-04T04:12:48.118Z,3.85
2022-10-04T04:15:16.168Z,4.53
2022-10-04T04:17:46.806Z,2.90
2022-10-04T04:20:30.470Z,3.72
2022-10-04T04:23:15.555Z,4.78
2022-10-04T04:25:47.841Z,3.50
2022-10-04T04:28:55.028Z,3.78
2022-10-04T04:31:46.345Z,3.60
2022-10-04T04:34:29.860Z,2.83
2022-10-04T04:37:05.202Z,4.10
2022-10-04T04:39:39.882Z,4.40
2022-10-04T04:42:19.050Z,4.18
2022-10-04T04:45:17.311Z,3.13
2022-10-04T04:47:50.515Z,4.68
2022-10-04T04:50:36.983Z,3.75
2022-10-04T04:53:36.112Z,3.65
2022-10-04T04:56:10.407Z,3.67
2022-10-04T04:58:46.704Z,3.33
2022-10-04T05:01:28.872Z,3.50
2022-10-04T05:04:13.577Z,2.83
2022-10-04T05:06:43.910Z,2.77
2022-10-04T05:09:22.672Z,4.97
2022-10-04T05:11:51.498Z,3.17
2022-10-04T05:14:19.667Z,3.28
2022-10-04T05:16:54.069Z,6.03
2022-10-04T05:19:35.210Z,4.97
2022-10-04T05:22:10.533Z,4.90
2022-10-04T05:24:46.991Z,3.63
2022-10-04T05:27:32.093Z,3.00
2022-10-04T05:30:21.891Z,4.82
2022-10-04T05:33:05.304Z,2.60
2022-10-04T05:35:54.706Z,6.40
2022-10-04T05:38:46.251Z,4.80
2022-10-04T05:41:41.061Z,3.47
2022-10-04T05:44:54.726Z,1.47
2022-10-04T05:47:27.795Z,2.38
2022-10-04T05:50:01.005Z,1.90
2022-10-04T05:52:40.004Z,2.08
2022-10-04T05:55:13.149Z,2.08
2022-10-04T05:57:55.547Z,2.45
2022-10-04T06:00:41.475Z,2.50
2022-10-04T06:03:34.801Z,1.48
2022-10-04T06:06:24.268Z,1.20
2022-10-04T06:09:44.821Z,1.38
2022-10-04T06:12:49.189Z,1.85
2022-10-04T06:15:56.690Z,1.40
2022-10-04T06:18:35.456Z,1.42
2022-10-04T06:21:21.432Z,1.07
2022-10-04T06:23:58.490Z,1.92
2022-10-04T06:26:37.594Z,2.47
2022-10-04T06:29:14.106Z,1.08
2022-10-04T06:31:59.023Z,1.98
2022-10-04T06:35:00.928Z,1.50
2022-10-04T06:38:05.978Z,1.95
2022-10-04T06:41:07.841Z,2.20
2022-10-04T06:44:02.608Z,1.35
2022-10-04T06:46:59.068Z,2.00
2022-10-04T06:49:46.929Z,1.20
2022-10-04T06:52:54.825Z,1.25
2022-10-04T06:55:31.502Z,1.70
2022-10-04T06:58:57.641Z,2.00
2022-10-04T07:01:31.358Z,1.13
2022-10-04T07:04:55.867Z,1.95
2022-10-04T07:07:35.847Z,1.63
2022-10-04T07:10:18.456Z,1.75
2022-10-04T07:12:56.058Z,1.90
2022-10-04T07:15:44.695Z,0.93
2022-10-04T07:18:22.167Z,1.27
2022-10-04T07:20:59.582Z,3.53
2022-10-04T07:23:37.785Z,1.10
2022-10-04T07:26:27.376Z,1.58
2022-10-04T07:29:18.499Z,1.10
2022-10-04T07:31:48.999Z,1.20
2022-10-04T07:34:28.824Z,0.93
2022-10-04T07:37:00.555Z,2.40
2022-10-04T07:39:54.647Z,1.40
2022-10-04T07:42:48.887Z,1.83
2022-10-04T07:45:29.750Z,1.20
2022-10-04T07:48:27.176Z,1.80
2022-10-04T07:51:09.508Z,1.88
2022-10-04T07:53:58.476Z,1.63
2022-10-04T07:57:01.972Z,0.95
2022-10-04T08:00:05.728Z,1.90
2022-10-04T08:02:53.453Z,2.50
2022-10-04T08:05:42.779Z,3.38
2022-10-04T08:08:52.823Z,2.10
2022-10-04T08:11:40.732Z,2.58
2022-10-04T08:14:53.477Z,2.50
2022-10-04T08:17:47.862Z,2.75
2022-10-04T08:20:56.791Z,2.47
2022-10-04T08:23:49.022Z,2.58
2022-10-04T08:26:38.151Z,2.15
2022-10-04T08:29:44.131Z,2.17
2022-10-04T08:33:06.484Z,2.78
2022-10-04T08:35:43.008Z,2.35
2022-10-04T08:38:54.010Z,1.77
2022-10-04T08:41:57.647Z,1.85
2022-10-04T08:45:00.692Z,2.13
2022-10-04T08:48:22.648Z,1.70
2022-10-04T08:51:19.450Z,3.15
2022-10-04T08:53:49.385Z,1.73
2022-10-04T08:56:44.504Z,2.55
2022-10-04T08:59:41.827Z,2.15
2022-10-04T09:02:46.743Z,3.10
2022-10-04T09:05:53.506Z,1.77
2022-10-04T09:08:31.554Z,3.25
2022-10-04T09:11:29.198Z,1.98
2022-10-04T09:14:20.542Z,1.83
2022-10-04T09:16:49.356Z,2.58
2022-10-04T09:19:29.260Z,2.63
2022-10-04T09:21:56.124Z,2.03
2022-10-04T09:24:34.674Z,1.70
2022-10-04T09:27:54.041Z,2.50
2022-10-04T09:30:33.200Z,1.73
2022-10-04T09:33:20.668Z,2.63
2022-10-04T09:36:16.410Z,2.25
2022-10-04T09:39:29.603Z,1.85
2022-10-04T09:42:36.872Z,2.53
2022-10-04T09:45:18.017Z,1.73
2022-10-04T09:48:25.369Z,1.35
2022-10-04T09:51:10.685Z,1.77
2022-10-04T09:53:46.433Z,1.48
2022-10-04T09:56:38.216Z,1.50
2022-10-04T10:00:11.180Z,1.02
2022-10-04T10:02:40.419Z,1.35
2022-10-04T10:05:28.593Z,1.58
2022-10-04T10:08:31.572Z,2.22
2022-10-04T10:12:01.793Z,2.03
2022-10-04T10:15:18.531Z,1.63
2022-10-04T10:18:27.862Z,1.20
2022-10-04T10:20:57.710Z,1.07
2022-10-04T10:23:46.600Z,2.70
2022-10-04T10:26:44.770Z,1.10
2022-10-04T10:29:42.287Z,1.48
2022-10-04T10:32:59.783Z,1.13
2022-10-04T10:35:49.148Z,1.85
2022-10-04T10:38:29.228Z,1.10
2022-10-04T10:41:59.962Z,0.65
2022-10-04T10:44:56.626Z,1.27
2022-10-04T10:47:38.674Z,3.58
2022-10-04T10:50:54.814Z,1.65
2022-10-04T10:54:25.295Z,2.00
2022-10-04T10:57:06.967Z,1.50
2022-10-04T11:00:01.593Z,1.63
2022-10-04T11:03:23.718Z,3.45
2022-10-04T11:06:16.811Z,1.40
2022-10-04T11:09:51.226Z,1.40
2022-10-04T11:13:13.616Z,1.35
2022-10-04T11:16:10.985Z,3.58
2022-10-04T11:19:06.519Z,2.03
2022-10-04T11:22:19.097Z,1.73
2022-10-04T11:25:07.430Z,0.80
2022-10-04T11:27:48.848Z,2.78
2022-10-04T11:30:25.181Z,2.97
2022-10-04T11:33:12.892Z,2.65
2022-10-04T11:36:22.603Z,1.80
2022-10-04T11:39:23.123Z,1.10
2022-10-04T11:42:18.045Z,1.80
2022-10-04T11:45:13.901Z,1.65
2022-10-04T11:47:59.184Z,1.67
2022-10-04T11:50:40.819Z,2.35
2022-10-04T11:53:29.200Z,1.35
2022-10-04T11:56:34.145Z,0.63
2022-10-04T11:59:11.160Z,0.90
2022-10-04T12:02:01.317Z,0.70
2022-10-04T12:04:46.295Z,0.98
2022-10-04T12:07:33.359Z,0.90
2022-10-04T12:10:22.758Z,1.80
2022-10-04T12:13:46.212Z,1.38
2022-10-04T12:17:21.635Z,1.25
2022-10-04T12:20:28.841Z,1.00
2022-10-04T12:23:36.188Z,2.60
2022-10-04T12:26:24.284Z,1.42
2022-10-04T12:29:49.112Z,0.80
2022-10-04T12:32:34.047Z,1.65
2022-10-04T12:35:43.152Z,1.20
2022-10-04T12:38:49.676Z,1.08
2022-10-04T12:41:25.137Z,0.93
2022-10-04T12:44:28.261Z,0.70
2022-10-04T12:47:32.747Z,0.80
2022-10-04T12:50:43.997Z,0.70
2022-10-04T12:53:40.851Z,0.55
2022-10-04T12:56:51.785Z,1.37
2022-10-04T13:00:03.720Z,1.20
2022-10-04T13:03:04.178Z,0.90
2022-10-04T13:06:14.852Z,1.10
2022-10-04T13:08:51.931Z,1.92
2022-10-04T13:11:46.134Z,1.25
2022-10-04T13:14:22.751Z,1.67
2022-10-04T13:20:14.912Z,1.05
2022-10-04T13:23:15.999Z,1.73
2022-10-04T13:25:54.806Z,0.68
2022-10-04T13:29:04.452Z,1.05
2022-10-04T13:31:57.619Z,0.88
2022-10-04T13:34:46.661Z,0.85
2022-10-04T13:38:04.195Z,1.58
2022-10-04T13:41:00.561Z,0.90
2022-10-04T13:44:10.724Z,0.93
2022-10-04T13:47:19.848Z,2.47
2022-10-04T13:49:55.402Z,0.93
2022-10-04T13:53:07.578Z,0.50
2022-10-04T13:56:05.544Z,1.27
2022-10-04T13:58:49.767Z,1.90
2022-10-04T14:02:13.471Z,1.70
2022-10-04T14:04:59.731Z,1.08
2022-10-04T14:08:04.497Z,1.30
2022-10-04T14:10:51.132Z,1.15
2022-10-04T14:13:40.728Z,1.70
2022-10-04T14:17:07.998Z,1.73
2022-10-04T14:19:50.946Z,1.73
2022-10-04T14:22:48.608Z,0.77
2022-10-04T14:26:10.078Z,1.50
2022-10-04T14:29:28.881Z,1.10
2022-10-04T14:32:29.670Z,1.10
2022-10-04T14:35:14.759Z,1.67
2022-10-04T14:37:50.376Z,1.30
2022-10-04T14:41:09.499Z,1.80
2022-10-04T14:43:51.493Z,2.00
2022-10-04T14:46:53.109Z,1.17
2022-10-04T14:50:03.176Z,1.20
2022-10-04T14:52:38.725Z,0.40
2022-10-04T14:55:51.211Z,1.10
2022-10-04T14:58:57.544Z,1.35
2022-10-04T15:01:27.841Z,2.00
2022-10-04T15:04:34.078Z,1.30
2022-10-04T15:07:30.089Z,1.35
2022-10-04T15:10:37.163Z,1.02
2022-10-04T15:13:56.622Z,1.15
2022-10-04T15:16:43.340Z,1.05
2022-10-04T15:19:34.752Z,1.48
2022-10-04T15:22:36.640Z,0.68
2022-10-04T15:25:46.268Z,1.60
2022-10-04T15:28:50.107Z,0.93
2022-10-04T15:32:20.005Z,0.80
2022-10-04T15:35:21.012Z,0.63
2022-10-04T15:38:13.855Z,1.50
2022-10-04T15:41:03.639Z,1.10
2022-10-04T15:44:11.908Z,0.73
2022-10-04T15:47:08.223Z,1.10
2022-10-04T15:50:12.438Z,1.17
2022-10-04T15:53:19.570Z,1.15
2022-10-04T15:56:25.189Z,1.60
2022-10-04T15:59:13.844Z,0.90
2022-10-04T16:01:43.572Z,1.10
2022-10-04T16:04:58.277Z,1.05
2022-10-04T16:08:18.089Z,0.90
2022-10-04T16:11:10.894Z,1.20
2022-10-04T16:13:57.000Z,1.08
2022-10-04T16:16:29.333Z,1.00
2022-10-04T16:19:14.848Z,1.15
2022-10-04T16:21:47.630Z,2.10
2022-10-04T16:24:20.607Z,0.93
2022-10-04T16:26:48.098Z,0.70
2022-10-04T16:30:25.709Z,1.02
2022-10-04T16:33:25.640Z,2.25
2022-10-04T16:36:10.361Z,0.60
2022-10-04T16:39:06.861Z,0.80
2022-10-04T16:42:01.409Z,1.30
2022-10-04T16:44:52.488Z,0.50
2022-10-04T16:47:50.841Z,0.98
2022-10-04T16:51:00.701Z,1.27
2022-10-04T16:54:11.051Z,1.33
2022-10-04T16:56:57.282Z,1.10
2022-10-04T16:59:39.405Z,0.98
2022-10-04T17:03:01.243Z,1.00
2022-10-04T17:05:55.643Z,1.27
2022-10-04T17:08:55.724Z,1.00
2022-10-04T17:12:03.192Z,0.90
2022-10-04T17:14:55.138Z,0.98
2022-10-04T17:18:05.757Z,0.60
2022-10-04T17:20:37.262Z,0.70
2022-10-04T17:24:06.636Z,0.60
2022-10-04T17:27:05.597Z,0.70
2022-10-04T17:30:16.270Z,0.68
2022-10-04T17:33:33.773Z,0.95
2022-10-04T17:36:37.653Z,0.60
2022-10-04T17:39:35.952Z,0.38
2022-10-04T17:42:30.680Z,2.83
2022-10-04T17:45:36.297Z,0.88
2022-10-04T17:48:40.610Z,1.20
2022-10-04T17:51:41.433Z,0.85
2022-10-04T17:54:40.556Z,1.00
2022-10-04T17:57:09.026Z,1.05
2022-10-04T17:59:48.408Z,0.95
2022-10-04T18:02:25.046Z,0.60
2022-10-04T18:05:01.741Z,0.82
2022-10-04T18:07:39.534Z,0.50
2022-10-04T18:10:41.543Z,0.73
2022-10-04T18:13:35.238Z,0.80
2022-10-04T18:16:23.533Z,0.80
2022-10-04T18:18:51.175Z,1.20
2022-10-04T18:21:23.970Z,0.68
2022-10-04T18:24:01.207Z,0.73
2022-10-04T18:26:32.756Z,0.68
2022-10-04T18:29:02.662Z,0.52
2022-10-04T18:31:37.440Z,0.90
2022-10-04T18:34:15.896Z,0.90
2022-10-04T18:37:28.150Z,0.30
2022-10-04T18:40:02.526Z,2.70
2022-10-04T18:42:37.119Z,1.10
2022-10-04T18:45:23.185Z,1.63
2022-10-04T18:47:52.255Z,1.40
2022-10-04T18:50:31.813Z,2.80
2022-10-04T18:53:13.601Z,2.75
2022-10-04T18:55:55.442Z,1.73
2022-10-04T18:59:38.573Z,2.38
2022-10-04T19:03:01.059Z,6.88
2022-10-04T19:05:51.371Z,7.60
2022-10-04T19:08:55.222Z,7.87
2022-10-04T19:11:47.228Z,4.13
2022-10-04T19:15:06.994Z,5.35
2022-10-04T19:18:07.178Z,7.43
2022-10-04T19:20:49.175Z,8.50
2022-10-04T19:23:21.958Z,5.97
2022-10-04T19:26:32.883Z,3.20
2022-10-04T19:29:24.912Z,3.65
2022-10-04T19:32:11.208Z,5.50
2022-10-04T19:34:44.201Z,4.68
2022-10-04T19:38:12.791Z,3.00
2022-10-04T19:41:02.770Z,4.85
2022-10-04T19:43:56.352Z,4.22
2022-10-04T19:46:46.840Z,5.65
2022-10-04T19:49:37.583Z,3.50
2022-10-04T19:52:29.842Z,3.47
2022-10-04T19:55:43.681Z,4.05
2022-10-04T19:58:45.306Z,5.18
2022-10-04T20:01:18.181Z,3.33
2022-10-04T20:03:45.834Z,4.05
2022-10-04T20:06:26.147Z,3.47
2022-10-04T20:09:02.787Z,3.15
2022-10-04T20:11:42.074Z,3.67
2022-10-04T20:14:09.209Z,3.05
2022-10-04T20:17:04.976Z,3.70
2022-10-04T20:19:32.040Z,3.73
2022-10-04T20:22:08.311Z,5.53
2022-10-04T20:24:38.374Z,4.65
2022-10-04T20:27:36.348Z,4.18
2022-10-04T20:30:16.399Z,4.03
2022-10-04T20:32:43.516Z,4.20
2022-10-04T20:35:32.983Z,3.50
2022-10-04T20:38:27.342Z,3.53
2022-10-04T20:40:47.006Z,4.47
2022-10-04T20:43:13.821Z,2.70
2022-10-04T20:45:53.100Z,3.63
2022-10-04T20:48:25.879Z,3.35
2022-10-04T20:50:54.653Z,3.33
2022-10-04T20:53:30.785Z,4.30
2022-10-04T20:56:26.579Z,3.23
2022-10-04T20:59:01.752Z,3.50
2022-10-04T21:01:37.841Z,3.85
2022-10-04T21:04:44.419Z,3.67
2022-10-04T21:07:33.187Z,3.25
2022-10-04T21:10:18.259Z,3.35
2022-10-04T21:12:45.794Z,3.30
2022-10-04T21:15:15.640Z,3.60
2022-10-04T21:17:44.589Z,3.53
2022-10-04T21:20:35.142Z,2.88
2022-10-04T21:23:33.755Z,3.78
2022-10-04T21:26:20.941Z,3.88
2022-10-04T21:28:58.218Z,2.95
2022-10-04T21:31:25.729Z,3.05
2022-10-04T21:33:52.894Z,3.50
2022-10-04T21:36:19.952Z,4.78
2022-10-04T21:38:46.917Z,2.75
2022-10-04T21:41:13.928Z,4.47
2022-10-04T21:43:40.895Z,4.38
2022-10-04T21:46:08.051Z,3.08
2022-10-04T21:48:35.104Z,3.08
2022-10-04T21:51:02.073Z,3.25
2022-10-04T21:53:29.051Z,3.50
2022-10-04T21:55:56.064Z,3.10
2022-10-04T21:58:23.132Z,3.55
2022-10-04T22:00:50.210Z,3.95
2022-10-04T22:03:17.302Z,4.35
2022-10-04T22:05:44.483Z,3.23
2022-10-04T22:08:11.515Z,3.40
2022-10-04T22:10:40.041Z,3.40
2022-10-04T22:13:07.590Z,3.45
2022-10-04T22:15:34.561Z,3.60
2022-10-04T22:18:01.743Z,3.85
2022-10-04T22:20:28.954Z,3.47
2022-10-04T22:22:57.608Z,3.38
2022-10-04T22:25:27.527Z,4.45
2022-10-04T22:27:55.037Z,3.38
2022-10-04T22:30:29.850Z,3.70
2022-10-04T22:33:00.531Z,3.53
2022-10-04T22:35:31.106Z,3.10
2022-10-04T22:38:00.087Z,4.60
2022-10-04T22:40:28.719Z,3.35
2022-10-04T22:42:57.222Z,3.13
2022-10-04T22:45:31.617Z,4.17
2022-10-04T22:48:01.240Z,2.88
2022-10-04T22:50:36.600Z,4.28
2022-10-04T22:53:22.343Z,3.58
2022-10-04T22:55:51.675Z,3.35
2022-10-04T22:58:21.078Z,4.10
2022-10-04T23:00:49.313Z,3.67
2022-10-04T23:03:32.109Z,3.63
2022-10-04T23:06:01.750Z,3.40
2022-10-04T23:08:29.799Z,2.85
2022-10-04T23:10:59.346Z,2.75
2022-10-04T23:13:27.741Z,3.55
2022-10-04T23:16:00.506Z,3.55
2022-10-04T23:18:29.876Z,3.53
2022-10-04T23:21:01.134Z,4.07
2022-10-04T23:23:30.691Z,3.38
2022-10-04T23:25:57.748Z,2.78
2022-10-04T23:28:25.118Z,3.53
2022-10-04T23:31:06.129Z,3.37
2022-10-04T23:33:33.240Z,3.88
2022-10-04T23:36:00.423Z,3.83
2022-10-04T23:38:30.434Z,4.07
2022-10-04T23:40:57.451Z,4.13
2022-10-04T23:43:25.794Z,4.10
2022-10-04T23:45:57.090Z,3.92
2022-10-04T23:48:29.016Z,3.42
2022-10-04T23:50:59.836Z,3.72
2022-10-04T23:53:30.915Z,3.67
2022-10-04T23:56:05.242Z,4.05
2022-10-04T23:58:40.102Z,3.23
